sensor_id;sensor_type;location;lat;lon;timestamp;pressure;altitude;pressure_sealevel;temperature;humidity
70437;BME280;57877;39.750;-104.894;2022-12-20T00:00:53;83922.93;;;4.91;7.87
70437;BME280;57877;39.750;-104.894;2022-12-20T00:03:18;83925.81;;;5.18;7.78
70437;BME280;57877;39.750;-104.894;2022-12-20T00:05:43;83930.96;;;4.91;7.88
70437;BME280;57877;39.750;-104.894;2022-12-20T00:08:08;83929.32;;;5.01;7.79
70437;BME280;57877;39.750;-104.894;2022-12-20T00:10:35;83931.02;;;4.61;8.13
70437;BME280;57877;39.750;-104.894;2022-12-20T00:12:58;83933.77;;;4.48;8.32
70437;BME280;57877;39.750;-104.894;2022-12-20T00:17:48;83935.08;;;5.24;8.48
70437;BME280;57877;39.750;-104.894;2022-12-20T00:20:14;83939.41;;;4.93;8.64
70437;BME280;57877;39.750;-104.894;2022-12-20T00:22:38;83939.88;;;4.94;8.80
70437;BME280;57877;39.750;-104.894;2022-12-20T00:25:04;83938.96;;;4.54;8.91
70437;BME280;57877;39.750;-104.894;2022-12-20T00:27:29;83938.36;;;4.48;9.08
70437;BME280;57877;39.750;-104.894;2022-12-20T00:29:54;83939.27;;;4.20;9.14
70437;BME280;57877;39.750;-104.894;2022-12-20T00:32:19;83944.03;;;4.71;8.87
70437;BME280;57877;39.750;-104.894;2022-12-20T00:34:44;83948.14;;;4.60;9.02
70437;BME280;57877;39.750;-104.894;2022-12-20T00:37:09;83950.99;;;4.82;8.90
70437;BME280;57877;39.750;-104.894;2022-12-20T00:39:34;83953.39;;;4.99;8.82
70437;BME280;57877;39.750;-104.894;2022-12-20T00:41:59;83955.03;;;4.92;8.90
70437;BME280;57877;39.750;-104.894;2022-12-20T00:44:24;83958.34;;;4.82;9.00
70437;BME280;57877;39.750;-104.894;2022-12-20T00:46:49;83962.55;;;4.76;9.03
70437;BME280;57877;39.750;-104.894;2022-12-20T00:49:14;83966.76;;;4.56;9.17
70437;BME280;57877;39.750;-104.894;2022-12-20T00:51:40;83969.19;;;4.55;9.36
70437;BME280;57877;39.750;-104.894;2022-12-20T00:54:05;83973.93;;;4.37;9.41
70437;BME280;57877;39.750;-104.894;2022-12-20T00:56:30;83981.01;;;4.10;9.37
70437;BME280;57877;39.750;-104.894;2022-12-20T00:58:57;83984.71;;;4.02;9.58
70437;BME280;57877;39.750;-104.894;2022-12-20T01:01:22;83989.94;;;4.38;9.56
70437;BME280;57877;39.750;-104.894;2022-12-20T01:03:45;83992.13;;;3.91;9.74
70437;BME280;57877;39.750;-104.894;2022-12-20T01:06:10;83992.14;;;4.28;9.75
70437;BME280;57877;39.750;-104.894;2022-12-20T01:08:36;83992.09;;;4.23;9.73
70437;BME280;57877;39.750;-104.894;2022-12-20T01:11:02;83995.71;;;3.59;9.77
70437;BME280;57877;39.750;-104.894;2022-12-20T01:13:26;83999.52;;;4.07;9.76
70437;BME280;57877;39.750;-104.894;2022-12-20T01:15:51;83999.81;;;3.99;9.90
70437;BME280;57877;39.750;-104.894;2022-12-20T01:18:16;84002.94;;;3.95;9.93
70437;BME280;57877;39.750;-104.894;2022-12-20T01:20:41;84004.57;;;3.65;10.28
70437;BME280;57877;39.750;-104.894;2022-12-20T01:23:06;84014.18;;;3.47;10.34
70437;BME280;57877;39.750;-104.894;2022-12-20T01:25:31;84014.47;;;3.40;10.41
70437;BME280;57877;39.750;-104.894;2022-12-20T01:27:56;84017.91;;;3.14;10.41
70437;BME280;57877;39.750;-104.894;2022-12-20T01:30:21;84021.00;;;2.95;10.46
70437;BME280;57877;39.750;-104.894;2022-12-20T01:32:46;84021.33;;;2.66;10.64
70437;BME280;57877;39.750;-104.894;2022-12-20T01:35:12;84025.25;;;2.83;10.45
70437;BME280;57877;39.750;-104.894;2022-12-20T01:37:37;84028.51;;;3.22;10.43
70437;BME280;57877;39.750;-104.894;2022-12-20T01:40:02;84030.02;;;3.09;10.36
70437;BME280;57877;39.750;-104.894;2022-12-20T01:42:27;84035.59;;;3.11;10.43
70437;BME280;57877;39.750;-104.894;2022-12-20T01:44:57;84040.13;;;3.26;10.45
70437;BME280;57877;39.750;-104.894;2022-12-20T01:47:17;84046.71;;;3.19;10.57
70437;BME280;57877;39.750;-104.894;2022-12-20T01:49:46;84049.93;;;2.86;10.50
70437;BME280;57877;39.750;-104.894;2022-12-20T01:52:10;84053.62;;;1.86;12.00
70437;BME280;57877;39.750;-104.894;2022-12-20T01:54:35;84056.88;;;1.72;11.96
70437;BME280;57877;39.750;-104.894;2022-12-20T01:57:00;84057.39;;;1.97;11.81
70437;BME280;57877;39.750;-104.894;2022-12-20T01:59:23;84061.09;;;2.18;11.95
70437;BME280;57877;39.750;-104.894;2022-12-20T02:01:48;84060.97;;;1.78;12.00
70437;BME280;57877;39.750;-104.894;2022-12-20T02:04:13;84059.31;;;1.85;12.00
70437;BME280;57877;39.750;-104.894;2022-12-20T02:06:38;84061.72;;;2.00;12.09
70437;BME280;57877;39.750;-104.894;2022-12-20T02:09:05;84061.02;;;1.99;12.03
70437;BME280;57877;39.750;-104.894;2022-12-20T02:11:43;84064.75;;;1.98;12.06
70437;BME280;57877;39.750;-104.894;2022-12-20T02:14:02;84069.99;;;2.01;12.05
70437;BME280;57877;39.750;-104.894;2022-12-20T02:16:23;84078.03;;;1.58;12.56
70437;BME280;57877;39.750;-104.894;2022-12-20T02:18:48;84082.38;;;1.15;13.08
70437;BME280;57877;39.750;-104.894;2022-12-20T02:26:13;84096.86;;;0.81;13.54
70437;BME280;57877;39.750;-104.894;2022-12-20T02:30:52;84117.99;;;-0.21;14.21
70437;BME280;57877;39.750;-104.894;2022-12-20T02:33:15;84125.75;;;-0.03;14.46
70437;BME280;57877;39.750;-104.894;2022-12-20T02:35:41;84127.93;;;0.05;14.67
70437;BME280;57877;39.750;-104.894;2022-12-20T02:40:35;84124.71;;;-0.14;15.48
70437;BME280;57877;39.750;-104.894;2022-12-20T02:42:58;84129.25;;;-0.51;15.65
70437;BME280;57877;39.750;-104.894;2022-12-20T02:45:23;84138.94;;;-0.34;15.81
70437;BME280;57877;39.750;-104.894;2022-12-20T02:47:50;84138.32;;;-0.79;16.55
70437;BME280;57877;39.750;-104.894;2022-12-20T02:50:12;84141.12;;;-0.79;16.67
70437;BME280;57877;39.750;-104.894;2022-12-20T02:52:38;84152.29;;;-0.73;16.63
70437;BME280;57877;39.750;-104.894;2022-12-20T02:55:03;84158.32;;;-0.58;16.68
70437;BME280;57877;39.750;-104.894;2022-12-20T02:57:31;84160.99;;;-0.38;16.47
70437;BME280;57877;39.750;-104.894;2022-12-20T02:59:57;84162.20;;;-0.42;16.48
70437;BME280;57877;39.750;-104.894;2022-12-20T03:02:17;84167.98;;;-0.18;16.34
70437;BME280;57877;39.750;-104.894;2022-12-20T03:04:43;84165.05;;;-0.16;16.29
70437;BME280;57877;39.750;-104.894;2022-12-20T03:07:09;84166.76;;;-0.55;16.57
70437;BME280;57877;39.750;-104.894;2022-12-20T03:09:36;84172.18;;;-0.36;16.53
70437;BME280;57877;39.750;-104.894;2022-12-20T03:11:58;84167.58;;;-0.30;16.44
70437;BME280;57877;39.750;-104.894;2022-12-20T03:14:23;84171.77;;;-0.21;16.20
70437;BME280;57877;39.750;-104.894;2022-12-20T03:16:48;84173.66;;;-0.41;16.04
70437;BME280;57877;39.750;-104.894;2022-12-20T03:19:13;84176.00;;;-0.32;16.00
70437;BME280;57877;39.750;-104.894;2022-12-20T03:21:38;84182.74;;;-0.67;16.23
70437;BME280;57877;39.750;-104.894;2022-12-20T03:24:03;84184.92;;;-0.47;16.25
70437;BME280;57877;39.750;-104.894;2022-12-20T03:26:29;84185.42;;;-0.19;16.20
70437;BME280;57877;39.750;-104.894;2022-12-20T03:28:54;84184.88;;;-0.60;16.30
70437;BME280;57877;39.750;-104.894;2022-12-20T03:31:19;84184.53;;;-0.54;16.33
70437;BME280;57877;39.750;-104.894;2022-12-20T03:33:44;84180.87;;;-0.20;16.27
70437;BME280;57877;39.750;-104.894;2022-12-20T03:36:09;84184.35;;;-0.66;16.23
70437;BME280;57877;39.750;-104.894;2022-12-20T03:38:34;84184.41;;;-0.16;16.17
70437;BME280;57877;39.750;-104.894;2022-12-20T03:40:59;84178.61;;;0.17;16.03
70437;BME280;57877;39.750;-104.894;2022-12-20T03:43:25;84178.63;;;0.22;15.83
70437;BME280;57877;39.750;-104.894;2022-12-20T03:45:50;84178.85;;;0.57;15.87
70437;BME280;57877;39.750;-104.894;2022-12-20T03:48:15;84178.60;;;0.05;15.93
70437;BME280;57877;39.750;-104.894;2022-12-20T03:50:40;84178.80;;;0.22;15.78
70437;BME280;57877;39.750;-104.894;2022-12-20T03:53:05;84178.69;;;0.34;15.87
70437;BME280;57877;39.750;-104.894;2022-12-20T03:55:30;84176.11;;;0.42;15.90
70437;BME280;57877;39.750;-104.894;2022-12-20T03:57:56;84170.01;;;0.47;15.86
70437;BME280;57877;39.750;-104.894;2022-12-20T04:00:21;84170.13;;;0.55;15.77
70437;BME280;57877;39.750;-104.894;2022-12-20T04:02:46;84176.23;;;0.51;15.87
70437;BME280;57877;39.750;-104.894;2022-12-20T04:05:11;84185.74;;;0.47;15.99
70437;BME280;57877;39.750;-104.894;2022-12-20T04:07:37;84183.43;;;0.47;16.10
70437;BME280;57877;39.750;-104.894;2022-12-20T04:10:03;84177.09;;;0.14;16.22
70437;BME280;57877;39.750;-104.894;2022-12-20T04:12:28;84175.45;;;0.34;16.06
70437;BME280;57877;39.750;-104.894;2022-12-20T04:14:53;84178.06;;;-0.05;16.30
70437;BME280;57877;39.750;-104.894;2022-12-20T04:17:18;84177.31;;;-0.25;16.31
70437;BME280;57877;39.750;-104.894;2022-12-20T04:19:43;84179.07;;;-0.37;16.37
70437;BME280;57877;39.750;-104.894;2022-12-20T04:22:08;84182.72;;;-0.12;16.49
70437;BME280;57877;39.750;-104.894;2022-12-20T04:24:33;84185.74;;;-0.10;16.49
70437;BME280;57877;39.750;-104.894;2022-12-20T04:26:58;84190.61;;;-0.60;16.74
70437;BME280;57877;39.750;-104.894;2022-12-20T04:29:24;84188.11;;;-0.86;17.15
70437;BME280;57877;39.750;-104.894;2022-12-20T04:31:49;84191.23;;;-0.88;17.35
70437;BME280;57877;39.750;-104.894;2022-12-20T04:34:14;84190.70;;;-0.90;17.40
70437;BME280;57877;39.750;-104.894;2022-12-20T04:36:39;84190.95;;;-1.24;17.92
70437;BME280;57877;39.750;-104.894;2022-12-20T04:39:04;84189.33;;;-1.23;17.79
70437;BME280;57877;39.750;-104.894;2022-12-20T04:41:29;84192.18;;;-0.73;17.70
70437;BME280;57877;39.750;-104.894;2022-12-20T04:43:56;84191.62;;;-0.72;17.73
70437;BME280;57877;39.750;-104.894;2022-12-20T04:46:21;84194.17;;;-0.90;17.65
70437;BME280;57877;39.750;-104.894;2022-12-20T04:48:45;84195.00;;;-1.31;17.90
70437;BME280;57877;39.750;-104.894;2022-12-20T04:51:10;84200.06;;;-1.14;17.87
70437;BME280;57877;39.750;-104.894;2022-12-20T04:53:35;84200.19;;;-0.64;17.65
70437;BME280;57877;39.750;-104.894;2022-12-20T04:56:01;84204.77;;;-0.39;17.53
70437;BME280;57877;39.750;-104.894;2022-12-20T04:58:25;84202.07;;;-0.79;17.60
70437;BME280;57877;39.750;-104.894;2022-12-20T05:00:51;84199.86;;;-0.61;17.58
70437;BME280;57877;39.750;-104.894;2022-12-20T05:03:16;84199.68;;;-0.95;17.69
70437;BME280;57877;39.750;-104.894;2022-12-20T05:05:41;84202.42;;;-0.74;17.73
70437;BME280;57877;39.750;-104.894;2022-12-20T05:08:06;84202.00;;;-0.77;17.68
70437;BME280;57877;39.750;-104.894;2022-12-20T05:10:31;84205.28;;;-1.31;17.92
70437;BME280;57877;39.750;-104.894;2022-12-20T05:12:57;84206.39;;;-1.18;17.87
70437;BME280;57877;39.750;-104.894;2022-12-20T05:15:22;84214.35;;;-1.15;17.92
70437;BME280;57877;39.750;-104.894;2022-12-20T05:17:47;84220.11;;;-1.03;17.74
70437;BME280;57877;39.750;-104.894;2022-12-20T05:20:13;84222.39;;;-0.91;17.77
70437;BME280;57877;39.750;-104.894;2022-12-20T05:22:37;84221.52;;;-1.03;17.78
70437;BME280;57877;39.750;-104.894;2022-12-20T05:25:03;84221.15;;;-0.89;17.80
70437;BME280;57877;39.750;-104.894;2022-12-20T05:27:27;84217.80;;;-1.03;17.90
70437;BME280;57877;39.750;-104.894;2022-12-20T05:29:53;84211.33;;;-1.24;18.19
70437;BME280;57877;39.750;-104.894;2022-12-20T05:32:18;84214.61;;;-1.05;18.16
70437;BME280;57877;39.750;-104.894;2022-12-20T05:34:43;84220.26;;;-0.90;18.29
70437;BME280;57877;39.750;-104.894;2022-12-20T05:37:08;84224.92;;;-0.67;18.19
70437;BME280;57877;39.750;-104.894;2022-12-20T05:39:33;84225.96;;;-0.91;18.19
70437;BME280;57877;39.750;-104.894;2022-12-20T05:41:58;84230.58;;;-0.58;18.22
70437;BME280;57877;39.750;-104.894;2022-12-20T05:44:24;84230.15;;;-0.82;18.30
70437;BME280;57877;39.750;-104.894;2022-12-20T05:46:49;84229.41;;;-0.70;18.20
70437;BME280;57877;39.750;-104.894;2022-12-20T05:49:15;84227.50;;;-0.91;18.37
70437;BME280;57877;39.750;-104.894;2022-12-20T05:51:39;84222.91;;;-2.17;19.20
70437;BME280;57877;39.750;-104.894;2022-12-20T05:54:04;84218.05;;;-1.59;19.01
70437;BME280;57877;39.750;-104.894;2022-12-20T05:56:29;84213.60;;;-1.41;18.85
70437;BME280;57877;39.750;-104.894;2022-12-20T05:58:54;84218.36;;;-2.46;19.77
70437;BME280;57877;39.750;-104.894;2022-12-20T06:01:20;84217.90;;;-2.27;19.61
70437;BME280;57877;39.750;-104.894;2022-12-20T06:03:45;84218.66;;;-1.51;19.37
70437;BME280;57877;39.750;-104.894;2022-12-20T06:06:10;84223.41;;;-1.19;19.05
70437;BME280;57877;39.750;-104.894;2022-12-20T06:08:35;84220.13;;;-0.92;18.78
70437;BME280;57877;39.750;-104.894;2022-12-20T06:11:00;84221.46;;;-1.54;19.04
70437;BME280;57877;39.750;-104.894;2022-12-20T06:13:25;84217.82;;;-1.44;19.20
70437;BME280;57877;39.750;-104.894;2022-12-20T06:15:51;84211.93;;;-3.12;20.11
70437;BME280;57877;39.750;-104.894;2022-12-20T06:18:16;84208.32;;;-3.53;21.01
70437;BME280;57877;39.750;-104.894;2022-12-20T06:20:41;84207.51;;;-2.41;20.36
70437;BME280;57877;39.750;-104.894;2022-12-20T06:23:06;84206.24;;;-1.80;19.59
70437;BME280;57877;39.750;-104.894;2022-12-20T06:25:31;84207.25;;;-2.05;19.80
70437;BME280;57877;39.750;-104.894;2022-12-20T06:27:57;84206.89;;;-1.37;19.47
70437;BME280;57877;39.750;-104.894;2022-12-20T06:30:22;84209.95;;;-2.59;20.01
70437;BME280;57877;39.750;-104.894;2022-12-20T06:32:47;84213.27;;;-2.03;20.02
70437;BME280;57877;39.750;-104.894;2022-12-20T06:35:13;84216.29;;;-2.80;21.21
70437;BME280;57877;39.750;-104.894;2022-12-20T06:37:38;84216.72;;;-2.67;20.93
70437;BME280;57877;39.750;-104.894;2022-12-20T06:40:03;84215.75;;;-1.79;20.45
70437;BME280;57877;39.750;-104.894;2022-12-20T06:42:27;84216.66;;;-2.04;20.22
70437;BME280;57877;39.750;-104.894;2022-12-20T06:44:53;84215.78;;;-1.97;20.41
70437;BME280;57877;39.750;-104.894;2022-12-20T06:47:18;84217.80;;;-1.55;20.09
70437;BME280;57877;39.750;-104.894;2022-12-20T06:49:43;84212.63;;;-2.46;20.52
70437;BME280;57877;39.750;-104.894;2022-12-20T06:52:08;84210.24;;;-2.38;20.52
70437;BME280;57877;39.750;-104.894;2022-12-20T06:54:34;84208.10;;;-2.32;20.70
70437;BME280;57877;39.750;-104.894;2022-12-20T06:56:59;84210.62;;;-1.91;20.28
70437;BME280;57877;39.750;-104.894;2022-12-20T06:59:24;84204.87;;;-1.70;20.10
70437;BME280;57877;39.750;-104.894;2022-12-20T07:01:49;84202.13;;;-1.87;20.18
70437;BME280;57877;39.750;-104.894;2022-12-20T07:04:14;84207.63;;;-1.79;20.22
70437;BME280;57877;39.750;-104.894;2022-12-20T07:06:40;84208.48;;;-1.55;20.00
70437;BME280;57877;39.750;-104.894;2022-12-20T07:09:05;84202.44;;;-1.89;20.12
70437;BME280;57877;39.750;-104.894;2022-12-20T07:11:30;84202.76;;;-2.29;20.32
70437;BME280;57877;39.750;-104.894;2022-12-20T07:13:56;84209.29;;;-2.13;20.26
70437;BME280;57877;39.750;-104.894;2022-12-20T07:16:20;84207.21;;;-1.82;20.19
70437;BME280;57877;39.750;-104.894;2022-12-20T07:18:49;84208.25;;;-2.20;20.20
70437;BME280;57877;39.750;-104.894;2022-12-20T07:21:11;84215.36;;;-2.70;20.77
70437;BME280;57877;39.750;-104.894;2022-12-20T07:23:36;84214.90;;;-3.18;20.96
70437;BME280;57877;39.750;-104.894;2022-12-20T07:26:01;84217.17;;;-2.37;20.61
70437;BME280;57877;39.750;-104.894;2022-12-20T07:28:27;84224.63;;;-1.92;20.13
70437;BME280;57877;39.750;-104.894;2022-12-20T07:30:51;84221.69;;;-2.26;20.26
70437;BME280;57877;39.750;-104.894;2022-12-20T07:33:17;84223.43;;;-2.20;20.03
70437;BME280;57877;39.750;-104.894;2022-12-20T07:35:42;84216.46;;;-2.28;19.85
70437;BME280;57877;39.750;-104.894;2022-12-20T07:38:07;84210.09;;;-2.72;20.63
70437;BME280;57877;39.750;-104.894;2022-12-20T07:40:32;84205.42;;;-2.44;20.18
70437;BME280;57877;39.750;-104.894;2022-12-20T07:42:57;84201.69;;;-2.84;20.21
70437;BME280;57877;39.750;-104.894;2022-12-20T07:45:22;84200.65;;;-2.51;19.96
70437;BME280;57877;39.750;-104.894;2022-12-20T07:47:47;84196.42;;;-2.29;19.59
70437;BME280;57877;39.750;-104.894;2022-12-20T07:50:13;84196.83;;;-3.15;19.62
70437;BME280;57877;39.750;-104.894;2022-12-20T07:52:39;84197.91;;;-3.68;19.73
70437;BME280;57877;39.750;-104.894;2022-12-20T07:55:05;84198.17;;;-3.85;19.59
70437;BME280;57877;39.750;-104.894;2022-12-20T07:57:33;84198.45;;;-3.25;19.33
70437;BME280;57877;39.750;-104.894;2022-12-20T07:59:56;84195.33;;;-3.51;18.82
70437;BME280;57877;39.750;-104.894;2022-12-20T08:02:22;84195.90;;;-4.32;19.51
70437;BME280;57877;39.750;-104.894;2022-12-20T08:04:44;84195.30;;;-4.50;19.66
70437;BME280;57877;39.750;-104.894;2022-12-20T08:07:10;84193.26;;;-3.82;19.35
70437;BME280;57877;39.750;-104.894;2022-12-20T08:09:36;84191.02;;;-3.40;18.67
70437;BME280;57877;39.750;-104.894;2022-12-20T08:12:00;84192.21;;;-3.32;18.71
70437;BME280;57877;39.750;-104.894;2022-12-20T08:14:25;84189.15;;;-3.79;19.08
70437;BME280;57877;39.750;-104.894;2022-12-20T08:16:50;84192.36;;;-4.59;19.12
70437;BME280;57877;39.750;-104.894;2022-12-20T08:19:15;84193.75;;;-4.54;19.21
70437;BME280;57877;39.750;-104.894;2022-12-20T08:21:40;84188.56;;;-5.00;19.36
70437;BME280;57877;39.750;-104.894;2022-12-20T08:24:06;84184.25;;;-4.68;19.52
70437;BME280;57877;39.750;-104.894;2022-12-20T08:26:31;84188.54;;;-4.67;19.25
70437;BME280;57877;39.750;-104.894;2022-12-20T08:28:56;84189.19;;;-3.97;18.84
70437;BME280;57877;39.750;-104.894;2022-12-20T08:31:21;84176.24;;;-3.50;18.26
70437;BME280;57877;39.750;-104.894;2022-12-20T08:33:46;84171.59;;;-4.53;18.41
70437;BME280;57877;39.750;-104.894;2022-12-20T08:36:13;84180.99;;;-4.65;18.62
70437;BME280;57877;39.750;-104.894;2022-12-20T08:38:38;84177.47;;;-4.15;18.26
70437;BME280;57877;39.750;-104.894;2022-12-20T08:41:03;84184.86;;;-4.29;18.16
70437;BME280;57877;39.750;-104.894;2022-12-20T08:43:27;84177.75;;;-3.96;18.00
70437;BME280;57877;39.750;-104.894;2022-12-20T08:45:53;84183.16;;;-4.48;18.68
70437;BME280;57877;39.750;-104.894;2022-12-20T08:48:18;84185.04;;;-4.20;18.70
70437;BME280;57877;39.750;-104.894;2022-12-20T08:50:43;84175.75;;;-3.56;18.57
70437;BME280;57877;39.750;-104.894;2022-12-20T08:53:08;84180.88;;;-3.72;18.49
70437;BME280;57877;39.750;-104.894;2022-12-20T08:55:33;84179.06;;;-3.75;18.67
70437;BME280;57877;39.750;-104.894;2022-12-20T08:57:58;84183.43;;;-3.89;18.65
70437;BME280;57877;39.750;-104.894;2022-12-20T09:00:24;84182.81;;;-3.50;18.51
70437;BME280;57877;39.750;-104.894;2022-12-20T09:02:49;84183.47;;;-2.77;17.75
70437;BME280;57877;39.750;-104.894;2022-12-20T09:05:14;84189.61;;;-1.88;17.32
70437;BME280;57877;39.750;-104.894;2022-12-20T09:07:39;84192.18;;;-1.90;17.11
70437;BME280;57877;39.750;-104.894;2022-12-20T09:10:05;84193.10;;;-1.70;17.05
70437;BME280;57877;39.750;-104.894;2022-12-20T09:12:30;84192.33;;;-2.33;17.45
70437;BME280;57877;39.750;-104.894;2022-12-20T09:14:55;84189.15;;;-1.89;17.15
70437;BME280;57877;39.750;-104.894;2022-12-20T09:17:20;84188.82;;;-1.80;17.18
70437;BME280;57877;39.750;-104.894;2022-12-20T09:19:45;84189.84;;;-1.97;17.55
70437;BME280;57877;39.750;-104.894;2022-12-20T09:22:10;84188.43;;;-2.37;18.03
70437;BME280;57877;39.750;-104.894;2022-12-20T09:24:37;84183.98;;;-2.26;18.22
70437;BME280;57877;39.750;-104.894;2022-12-20T09:27:01;84179.94;;;-2.19;18.31
70437;BME280;57877;39.750;-104.894;2022-12-20T09:29:26;84177.61;;;-2.41;18.70
70437;BME280;57877;39.750;-104.894;2022-12-20T09:31:51;84175.23;;;-3.50;19.45
70437;BME280;57877;39.750;-104.894;2022-12-20T09:34:16;84169.82;;;-3.83;19.58
70437;BME280;57877;39.750;-104.894;2022-12-20T09:36:42;84169.55;;;-3.28;19.09
70437;BME280;57877;39.750;-104.894;2022-12-20T09:39:07;84168.55;;;-4.14;19.60
70437;BME280;57877;39.750;-104.894;2022-12-20T09:41:38;84170.47;;;-3.07;19.15
70437;BME280;57877;39.750;-104.894;2022-12-20T09:43:59;84168.24;;;-2.50;18.54
70437;BME280;57877;39.750;-104.894;2022-12-20T09:46:23;84163.75;;;-2.51;18.42
70437;BME280;57877;39.750;-104.894;2022-12-20T09:48:48;84168.45;;;-2.44;18.57
70437;BME280;57877;39.750;-104.894;2022-12-20T09:51:28;84169.05;;;-2.55;18.68
70437;BME280;57877;39.750;-104.894;2022-12-20T09:53:45;84167.52;;;-2.48;18.71
70437;BME280;57877;39.750;-104.894;2022-12-20T09:56:09;84164.82;;;-2.19;18.60
70437;BME280;57877;39.750;-104.894;2022-12-20T09:58:36;84162.51;;;-2.94;19.07
70437;BME280;57877;39.750;-104.894;2022-12-20T10:00:54;84165.34;;;-3.00;19.19
70437;BME280;57877;39.750;-104.894;2022-12-20T10:03:21;84167.02;;;-3.13;19.42
70437;BME280;57877;39.750;-104.894;2022-12-20T10:05:50;84164.31;;;-2.50;18.96
70437;BME280;57877;39.750;-104.894;2022-12-20T10:08:15;84160.10;;;-2.66;19.09
70437;BME280;57877;39.750;-104.894;2022-12-20T10:10:46;84155.22;;;-3.13;19.37
70437;BME280;57877;39.750;-104.894;2022-12-20T10:13:05;84158.90;;;-3.46;19.70
70437;BME280;57877;39.750;-104.894;2022-12-20T10:15:29;84153.51;;;-3.45;19.76
70437;BME280;57877;39.750;-104.894;2022-12-20T10:18:00;84151.87;;;-3.52;19.87
70437;BME280;57877;39.750;-104.894;2022-12-20T10:20:28;84147.43;;;-3.90;20.16
70437;BME280;57877;39.750;-104.894;2022-12-20T10:22:45;84142.83;;;-4.14;20.65
70437;BME280;57877;39.750;-104.894;2022-12-20T10:25:12;84142.06;;;-4.67;21.15
70437;BME280;57877;39.750;-104.894;2022-12-20T10:27:31;84144.63;;;-4.82;21.36
70437;BME280;57877;39.750;-104.894;2022-12-20T10:29:56;84137.51;;;-3.41;20.57
70437;BME280;57877;39.750;-104.894;2022-12-20T10:32:23;84136.02;;;-3.50;20.46
70437;BME280;57877;39.750;-104.894;2022-12-20T10:34:54;84132.41;;;-3.12;19.78
70437;BME280;57877;39.750;-104.894;2022-12-20T10:37:12;84128.89;;;-2.06;19.22
70437;BME280;57877;39.750;-104.894;2022-12-20T10:39:41;84129.60;;;-2.90;19.20
70437;BME280;57877;39.750;-104.894;2022-12-20T10:42:02;84125.71;;;-2.73;19.37
70437;BME280;57877;39.750;-104.894;2022-12-20T10:44:28;84131.11;;;-2.59;19.33
70437;BME280;57877;39.750;-104.894;2022-12-20T10:46:54;84132.20;;;-2.75;19.43
70437;BME280;57877;39.750;-104.894;2022-12-20T10:49:27;84134.66;;;-2.15;19.03
70437;BME280;57877;39.750;-104.894;2022-12-20T10:51:50;84137.36;;;-2.29;19.34
70437;BME280;57877;39.750;-104.894;2022-12-20T10:56:34;84140.22;;;-3.24;19.94
70437;BME280;57877;39.750;-104.894;2022-12-20T10:58:59;84140.77;;;-2.39;19.92
70437;BME280;57877;39.750;-104.894;2022-12-20T11:01:27;84143.98;;;-2.97;20.23
70437;BME280;57877;39.750;-104.894;2022-12-20T11:03:55;84154.33;;;-3.82;20.96
70437;BME280;57877;39.750;-104.894;2022-12-20T11:06:17;84152.58;;;-3.46;21.29
70437;BME280;57877;39.750;-104.894;2022-12-20T11:08:40;84153.35;;;-3.46;21.62
70437;BME280;57877;39.750;-104.894;2022-12-20T11:11:11;84152.19;;;-3.75;21.95
70437;BME280;57877;39.750;-104.894;2022-12-20T11:13:29;84151.88;;;-3.16;21.95
70437;BME280;57877;39.750;-104.894;2022-12-20T11:15:55;84145.12;;;-3.83;22.42
70437;BME280;57877;39.750;-104.894;2022-12-20T11:18:26;84144.70;;;-3.32;22.09
70437;BME280;57877;39.750;-104.894;2022-12-20T11:20:50;84145.07;;;-3.69;22.45
70437;BME280;57877;39.750;-104.894;2022-12-20T11:23:19;84143.94;;;-3.39;22.35
70437;BME280;57877;39.750;-104.894;2022-12-20T11:25:48;84147.35;;;-3.91;22.78
70437;BME280;57877;39.750;-104.894;2022-12-20T11:28:12;84152.36;;;-3.15;22.28
70437;BME280;57877;39.750;-104.894;2022-12-20T11:30:31;84148.47;;;-3.71;22.63
70437;BME280;57877;39.750;-104.894;2022-12-20T11:33:04;84144.25;;;-3.85;23.00
70437;BME280;57877;39.750;-104.894;2022-12-20T11:35:19;84151.85;;;-2.90;21.99
70437;BME280;57877;39.750;-104.894;2022-12-20T11:37:48;84150.07;;;-3.11;22.13
70437;BME280;57877;39.750;-104.894;2022-12-20T11:40:16;84143.94;;;-2.79;21.98
70437;BME280;57877;39.750;-104.894;2022-12-20T11:42:42;84146.20;;;-3.27;22.28
70437;BME280;57877;39.750;-104.894;2022-12-20T11:45:03;84145.44;;;-3.69;22.44
70437;BME280;57877;39.750;-104.894;2022-12-20T11:47:34;84142.34;;;-4.30;23.35
70437;BME280;57877;39.750;-104.894;2022-12-20T11:49:57;84142.48;;;-4.56;23.72
70437;BME280;57877;39.750;-104.894;2022-12-20T11:52:18;84142.18;;;-4.24;23.50
70437;BME280;57877;39.750;-104.894;2022-12-20T11:54:42;84139.65;;;-3.87;22.92
70437;BME280;57877;39.750;-104.894;2022-12-20T11:57:06;84141.59;;;-3.40;22.21
70437;BME280;57877;39.750;-104.894;2022-12-20T11:59:33;84138.38;;;-3.33;22.31
70437;BME280;57877;39.750;-104.894;2022-12-20T12:01:59;84145.31;;;-2.84;21.82
70437;BME280;57877;39.750;-104.894;2022-12-20T12:04:20;84146.35;;;-3.25;21.99
70437;BME280;57877;39.750;-104.894;2022-12-20T12:06:46;84142.09;;;-3.34;21.98
70437;BME280;57877;39.750;-104.894;2022-12-20T12:09:15;84145.74;;;-2.99;21.84
70437;BME280;57877;39.750;-104.894;2022-12-20T12:11:39;84151.34;;;-2.61;21.53
70437;BME280;57877;39.750;-104.894;2022-12-20T12:14:01;84153.33;;;-2.45;21.07
70437;BME280;57877;39.750;-104.894;2022-12-20T12:16:27;84153.92;;;-2.64;21.32
70437;BME280;57877;39.750;-104.894;2022-12-20T12:18:50;84151.88;;;-2.58;21.35
70437;BME280;57877;39.750;-104.894;2022-12-20T12:21:21;84152.29;;;-2.29;21.33
70437;BME280;57877;39.750;-104.894;2022-12-20T12:23:48;84157.25;;;-2.59;21.21
70437;BME280;57877;39.750;-104.894;2022-12-20T12:26:11;84165.43;;;-3.09;21.27
70437;BME280;57877;39.750;-104.894;2022-12-20T12:28:31;84162.86;;;-2.43;21.03
70437;BME280;57877;39.750;-104.894;2022-12-20T12:31:06;84166.75;;;-2.42;20.73
70437;BME280;57877;39.750;-104.894;2022-12-20T12:33:25;84164.86;;;-2.34;20.83
70437;BME280;57877;39.750;-104.894;2022-12-20T12:35:55;84170.29;;;-2.65;20.98